createdAt,value
2022-10-28T00:01:24.437Z,12.11
2022-10-28T00:04:00.878Z,12.16
2022-10-28T00:06:35.305Z,12.16
2022-10-28T00:09:05.623Z,12.39
2022-10-28T00:11:35.609Z,12.25
2022-10-28T00:14:06.944Z,12.38
2022-10-28T00:16:37.687Z,12.32
2022-10-28T00:19:08.226Z,12.52
2022-10-28T00:21:38.245Z,12.52
2022-10-28T00:24:07.581Z,12.52
2022-10-28T00:26:37.376Z,12.76
2022-10-28T00:29:15.958Z,12.61
2022-10-28T00:31:43.992Z,12.78
2022-10-28T00:34:21.375Z,12.50
2022-10-28T00:36:49.294Z,12.80
2022-10-28T00:39:23.672Z,12.69
2022-10-28T00:41:58.977Z,12.69
2022-10-28T00:44:58.779Z,12.81
2022-10-28T00:48:00.934Z,12.53
2022-10-28T00:50:48.886Z,12.61
2022-10-28T00:53:28.411Z,12.43
2022-10-28T00:55:57.005Z,12.36
2022-10-28T00:58:26.383Z,12.34
2022-10-28T01:00:54.095Z,12.41
2022-10-28T01:03:21.760Z,12.34
2022-10-28T01:05:50.835Z,12.24
2022-10-28T01:08:18.547Z,12.38
2022-10-28T01:11:13.578Z,12.47
2022-10-28T01:14:18.121Z,12.21
2022-10-28T01:17:08.895Z,12.38
2022-10-28T01:20:27.042Z,12.26
2022-10-28T01:23:23.206Z,12.16
2022-10-28T01:26:16.981Z,12.24
2022-10-28T01:29:22.236Z,12.53
2022-10-28T01:32:16.614Z,12.64
2022-10-28T01:35:06.750Z,12.80
2022-10-28T01:37:58.105Z,12.73
2022-10-28T01:40:40.350Z,12.77
2022-10-28T01:44:20.307Z,12.99
2022-10-28T01:47:09.869Z,12.94
2022-10-28T01:50:03.026Z,12.90
2022-10-28T01:52:32.880Z,12.95
2022-10-28T01:55:16.230Z,12.73
2022-10-28T01:57:45.460Z,12.73
2022-10-28T02:00:13.583Z,12.61
2022-10-28T02:02:42.627Z,12.60
2022-10-28T02:05:42.132Z,12.46
2022-10-28T02:08:17.794Z,12.57
2022-10-28T02:11:30.810Z,12.61
2022-10-28T02:14:12.526Z,12.46
2022-10-28T02:16:51.333Z,12.47
2022-10-28T02:19:49.081Z,12.49
2022-10-28T02:22:41.109Z,12.40
2022-10-28T02:25:26.231Z,12.82
2022-10-28T02:28:02.022Z,12.66
2022-10-28T02:31:02.239Z,12.79
2022-10-28T02:33:35.775Z,12.88
2022-10-28T02:36:16.100Z,12.94
2022-10-28T02:38:52.663Z,13.07
2022-10-28T02:42:10.546Z,12.98
2022-10-28T02:44:45.257Z,12.64
2022-10-28T02:47:19.850Z,12.68
2022-10-28T02:49:56.343Z,12.60
2022-10-28T02:52:28.161Z,12.42
2022-10-28T02:54:59.949Z,12.39
2022-10-28T02:57:40.438Z,12.66
2022-10-28T03:00:15.093Z,12.50
2022-10-28T03:02:42.196Z,12.31
2022-10-28T03:05:09.540Z,12.45
2022-10-28T03:07:36.547Z,12.59
2022-10-28T03:10:04.012Z,12.44
2022-10-28T03:12:31.034Z,12.10
2022-10-28T03:14:57.989Z,11.87
2022-10-28T03:17:24.894Z,11.66
2022-10-28T03:19:51.892Z,11.88
2022-10-28T03:22:18.797Z,11.93
2022-10-28T03:24:45.709Z,12.02
2022-10-28T03:27:12.703Z,12.04
2022-10-28T03:29:43.440Z,11.80
2022-10-28T03:32:13.189Z,11.45
2022-10-28T03:34:40.192Z,11.60
2022-10-28T03:37:07.433Z,11.46
2022-10-28T03:39:34.433Z,11.19
2022-10-28T03:42:01.408Z,11.22
2022-10-28T03:44:28.379Z,11.33
2022-10-28T03:46:55.338Z,11.46
2022-10-28T03:49:22.313Z,11.65
2022-10-28T03:51:49.514Z,11.78
2022-10-28T03:54:17.733Z,11.80
2022-10-28T03:56:44.765Z,11.64
2022-10-28T03:59:13.263Z,11.85
2022-10-28T04:01:42.848Z,11.87
2022-10-28T04:04:09.843Z,11.96
2022-10-28T04:06:36.772Z,11.90
2022-10-28T04:09:03.746Z,12.02
2022-10-28T04:11:31.793Z,11.78
2022-10-28T04:13:58.806Z,11.30
2022-10-28T04:16:25.889Z,11.39
2022-10-28T04:18:52.850Z,11.36
2022-10-28T04:21:19.981Z,11.17
2022-10-28T04:23:46.963Z,11.36
2022-10-28T04:26:15.370Z,11.45
2022-10-28T04:28:42.456Z,11.55
2022-10-28T04:31:14.469Z,11.86
2022-10-28T04:33:42.862Z,11.94
2022-10-28T04:36:09.850Z,11.96
2022-10-28T04:38:36.916Z,12.01
2022-10-28T04:41:03.977Z,12.02
2022-10-28T04:43:30.909Z,12.03
2022-10-28T04:45:58.139Z,11.94
2022-10-28T04:48:25.109Z,11.83
2022-10-28T04:50:53.351Z,11.66
2022-10-28T04:53:20.306Z,11.74
2022-10-28T04:55:47.302Z,11.68
2022-10-28T04:58:14.506Z,11.68
2022-10-28T05:00:41.450Z,11.80
2022-10-28T05:03:08.403Z,11.91
2022-10-28T05:05:35.654Z,12.01
2022-10-28T05:08:02.661Z,12.10
2022-10-28T05:10:30.302Z,12.14
2022-10-28T05:12:57.285Z,12.15
2022-10-28T05:15:26.474Z,12.15
2022-10-28T05:17:53.975Z,12.10
2022-10-28T05:20:21.441Z,12.15
2022-10-28T05:22:54.923Z,12.15
2022-10-28T05:25:23.616Z,11.88
2022-10-28T05:27:51.204Z,11.87
2022-10-28T05:30:18.912Z,11.71
2022-10-28T05:32:47.480Z,11.46
2022-10-28T05:35:16.296Z,11.30
2022-10-28T05:37:43.935Z,11.28
2022-10-28T05:40:12.086Z,11.23
2022-10-28T05:42:43.329Z,11.29
2022-10-28T05:45:11.956Z,11.46
2022-10-28T05:47:48.842Z,11.72
2022-10-28T05:50:18.960Z,11.48
2022-10-28T05:52:55.613Z,11.50
2022-10-28T05:55:30.574Z,11.38
2022-10-28T05:57:57.981Z,11.58
2022-10-28T06:00:26.567Z,11.63
2022-10-28T06:02:53.844Z,11.90
2022-10-28T06:05:21.279Z,11.73
2022-10-28T06:07:48.274Z,11.36
2022-10-28T06:10:15.235Z,11.54
2022-10-28T06:12:40.682Z,11.62
2022-10-28T06:15:08.380Z,11.80
2022-10-28T06:17:35.554Z,11.72
2022-10-28T06:20:04.349Z,11.70
2022-10-28T06:22:31.439Z,11.61
2022-10-28T06:24:58.458Z,11.75
2022-10-28T06:27:25.538Z,11.74
2022-10-28T06:29:52.585Z,11.84
2022-10-28T06:32:33.912Z,11.86
2022-10-28T06:35:00.871Z,11.75
2022-10-28T06:37:28.015Z,11.63
2022-10-28T06:39:57.257Z,11.38
2022-10-28T06:42:24.491Z,11.54
2022-10-28T06:44:53.171Z,11.56
2022-10-28T06:47:27.143Z,11.62
2022-10-28T06:49:54.628Z,11.72
2022-10-28T06:52:36.835Z,11.72
2022-10-28T06:55:04.585Z,11.67
2022-10-28T06:57:34.397Z,11.95
2022-10-28T07:00:29.029Z,11.90
2022-10-28T07:02:57.146Z,12.03
2022-10-28T07:05:27.619Z,12.33
2022-10-28T07:08:04.001Z,12.56
2022-10-28T07:10:31.084Z,12.72
2022-10-28T07:12:58.520Z,12.64
2022-10-28T07:15:31.407Z,12.84
2022-10-28T07:18:02.641Z,13.08
2022-10-28T07:20:31.921Z,13.16
2022-10-28T07:23:02.204Z,13.23
2022-10-28T07:25:31.683Z,13.23
2022-10-28T07:27:59.376Z,13.28
2022-10-28T07:30:33.451Z,13.43
2022-10-28T07:33:01.231Z,13.62
2022-10-28T07:35:28.965Z,13.90
2022-10-28T07:37:56.215Z,13.91
2022-10-28T07:40:24.519Z,14.16
2022-10-28T07:42:51.846Z,14.35
2022-10-28T07:45:19.139Z,14.69
2022-10-28T07:47:46.210Z,14.93
2022-10-28T07:50:13.903Z,15.19
2022-10-28T07:52:43.273Z,15.26
2022-10-28T07:55:14.110Z,15.33
2022-10-28T07:57:41.307Z,15.50
2022-10-28T08:00:09.341Z,15.51
2022-10-28T08:02:36.315Z,15.51
2022-10-28T08:05:03.818Z,15.55
2022-10-28T08:07:34.795Z,15.69
2022-10-28T08:10:05.936Z,15.84
2022-10-28T08:12:32.876Z,16.09
2022-10-28T08:14:59.787Z,16.22
2022-10-28T08:17:29.019Z,16.37
2022-10-28T08:19:56.123Z,16.27
2022-10-28T08:22:23.660Z,16.38
2022-10-28T08:24:50.603Z,16.44
2022-10-28T08:27:17.562Z,16.45
2022-10-28T08:29:44.728Z,16.43
2022-10-28T08:32:11.743Z,16.29
2022-10-28T08:34:42.454Z,16.06
2022-10-28T08:37:10.989Z,16.11
2022-10-28T08:39:38.290Z,16.50
2022-10-28T08:42:46.748Z,16.74
2022-10-28T08:45:21.659Z,16.13
2022-10-28T08:48:24.461Z,16.33
2022-10-28T08:51:00.478Z,16.63
2022-10-28T08:53:41.387Z,16.62
2022-10-28T08:56:22.369Z,16.28
2022-10-28T08:58:54.650Z,16.15
2022-10-28T09:01:48.688Z,16.01
2022-10-28T09:04:37.789Z,16.46
2022-10-28T09:07:08.872Z,16.87
2022-10-28T09:09:35.926Z,17.12
2022-10-28T09:12:50.399Z,16.96
2022-10-28T09:15:45.442Z,17.17
2022-10-28T09:18:45.229Z,17.33
2022-10-28T09:22:07.811Z,17.43
2022-10-28T09:24:53.761Z,17.59
2022-10-28T09:28:14.450Z,17.66
2022-10-28T09:31:18.471Z,17.78
2022-10-28T09:33:58.829Z,17.55
2022-10-28T09:36:36.911Z,17.57
2022-10-28T09:39:07.316Z,17.74
2022-10-28T09:41:38.936Z,17.92
2022-10-28T09:44:36.475Z,18.19
2022-10-28T09:47:14.983Z,18.25
2022-10-28T09:49:43.345Z,18.36
2022-10-28T09:52:25.198Z,18.34
2022-10-28T09:55:02.298Z,18.54
2022-10-28T09:57:31.966Z,18.48
2022-10-28T10:00:00.425Z,18.77
2022-10-28T10:02:33.877Z,18.99
2022-10-28T10:05:02.925Z,18.79
2022-10-28T10:07:57.861Z,18.75
2022-10-28T10:10:58.222Z,18.71
2022-10-28T10:13:42.132Z,19.05
2022-10-28T10:16:34.929Z,19.05
2022-10-28T10:19:06.175Z,19.09
2022-10-28T10:21:50.029Z,19.34
2022-10-28T10:24:31.254Z,19.66
2022-10-28T10:27:10.522Z,19.71
2022-10-28T10:29:47.647Z,19.49
2022-10-28T10:32:27.096Z,19.82
2022-10-28T10:35:30.624Z,19.76
2022-10-28T10:38:05.770Z,19.81
2022-10-28T10:40:54.777Z,19.88
2022-10-28T10:43:35.501Z,20.12
2022-10-28T10:46:16.428Z,20.07
2022-10-28T10:48:44.606Z,20.25
2022-10-28T10:51:32.010Z,20.29
2022-10-28T10:54:02.469Z,20.69
2022-10-28T10:56:33.845Z,20.60
2022-10-28T10:59:05.955Z,20.52
2022-10-28T11:01:40.004Z,20.48
2022-10-28T11:04:15.892Z,20.60
2022-10-28T11:06:55.231Z,20.39
2022-10-28T11:09:45.277Z,20.73
2022-10-28T11:12:35.949Z,21.02
2022-10-28T11:15:26.910Z,21.04
2022-10-28T11:18:20.875Z,21.25
2022-10-28T11:21:20.610Z,21.37
2022-10-28T11:24:05.498Z,21.51
2022-10-28T11:27:19.764Z,21.35
2022-10-28T11:29:49.989Z,21.67
2022-10-28T11:33:01.774Z,21.68
2022-10-28T11:36:19.533Z,21.71
2022-10-28T11:39:42.635Z,22.06
2022-10-28T11:42:34.456Z,22.05
2022-10-28T11:45:58.847Z,21.61
2022-10-28T11:49:29.834Z,21.81
2022-10-28T11:53:17.208Z,22.11
2022-10-28T11:56:25.841Z,21.93
2022-10-28T11:59:33.894Z,22.13
2022-10-28T12:02:30.628Z,22.26
2022-10-28T12:05:39.230Z,22.03
2022-10-28T12:12:13.140Z,22.28
2022-10-28T12:15:01.369Z,22.23
2022-10-28T12:18:02.038Z,22.10
2022-10-28T12:21:20.667Z,21.89
2022-10-28T12:23:49.516Z,22.14
2022-10-28T12:26:20.232Z,22.27
2022-10-28T12:29:16.190Z,22.38
2022-10-28T12:31:57.122Z,22.93
2022-10-28T12:34:51.083Z,23.41
2022-10-28T12:37:34.910Z,23.64
2022-10-28T12:40:31.717Z,23.23
2022-10-28T12:43:34.168Z,23.72
2022-10-28T12:46:02.242Z,23.88
2022-10-28T12:49:06.786Z,23.49
2022-10-28T12:51:40.984Z,23.57
2022-10-28T12:54:40.885Z,23.89
2022-10-28T12:57:17.013Z,23.76
2022-10-28T13:00:13.499Z,23.73
2022-10-28T13:02:57.330Z,23.75
2022-10-28T13:05:58.738Z,24.10
2022-10-28T13:12:25.142Z,23.73
2022-10-28T13:15:25.826Z,23.98
2022-10-28T13:18:51.714Z,23.46
2022-10-28T13:21:44.005Z,23.31
2022-10-28T13:24:35.769Z,23.44
2022-10-28T13:27:16.483Z,23.43
2022-10-28T13:29:51.279Z,23.58
2022-10-28T13:32:40.770Z,23.44
2022-10-28T13:35:25.228Z,23.61
2022-10-28T13:38:01.548Z,23.40
2022-10-28T13:40:32.047Z,23.58
2022-10-28T13:43:12.606Z,23.50
2022-10-28T13:45:57.461Z,23.43
2022-10-28T13:48:43.149Z,23.50
2022-10-28T13:51:13.109Z,23.23
2022-10-28T13:53:56.884Z,23.37
2022-10-28T13:56:46.588Z,22.88
2022-10-28T13:59:30.187Z,22.87
2022-10-28T14:02:33.641Z,22.85
2022-10-28T14:05:19.583Z,22.88
2022-10-28T14:08:21.040Z,22.66
2022-10-28T14:11:33.456Z,22.77
2022-10-28T14:14:04.152Z,22.56
2022-10-28T14:16:43.000Z,22.21
2022-10-28T14:19:09.826Z,22.21
2022-10-28T14:22:06.648Z,22.17
2022-10-28T14:24:45.480Z,22.15
2022-10-28T14:27:44.036Z,22.12
2022-10-28T14:30:22.707Z,22.19
2022-10-28T14:32:49.565Z,22.25
2022-10-28T14:35:33.187Z,22.20
2022-10-28T14:39:08.064Z,22.11
2022-10-28T14:42:19.741Z,22.20
2022-10-28T14:45:20.974Z,22.04
2022-10-28T14:48:20.290Z,21.95
2022-10-28T14:50:52.413Z,21.90
2022-10-28T14:53:33.672Z,21.89
2022-10-28T14:56:29.161Z,21.70
2022-10-28T14:59:14.000Z,21.72
2022-10-28T15:02:21.754Z,21.43
2022-10-28T15:05:29.785Z,21.27
2022-10-28T15:08:04.062Z,21.31
2022-10-28T15:10:33.948Z,21.27
2022-10-28T15:13:04.801Z,21.14
2022-10-28T15:15:35.101Z,21.13
2022-10-28T15:18:02.604Z,20.98
2022-10-28T15:20:37.918Z,20.80
2022-10-28T15:23:19.126Z,20.68
2022-10-28T15:26:12.215Z,20.59
2022-10-28T15:28:46.476Z,20.54
2022-10-28T15:31:17.395Z,20.47
2022-10-28T15:33:44.365Z,20.36
2022-10-28T15:36:27.636Z,20.21
2022-10-28T15:39:17.836Z,20.28
2022-10-28T15:42:30.901Z,20.10
2022-10-28T15:45:01.789Z,20.06
2022-10-28T15:47:36.850Z,19.98
2022-10-28T15:50:15.012Z,19.98
2022-10-28T15:52:57.150Z,19.85
2022-10-28T15:55:35.894Z,19.74
2022-10-28T15:58:19.419Z,19.87
2022-10-28T16:01:10.079Z,19.86
2022-10-28T16:03:50.108Z,19.92
2022-10-28T16:06:40.192Z,19.84
2022-10-28T16:09:41.552Z,19.84
2022-10-28T16:12:36.774Z,19.73
2022-10-28T16:18:28.696Z,19.71
2022-10-28T16:20:58.318Z,19.62
2022-10-28T16:23:45.791Z,19.45
2022-10-28T16:26:20.078Z,19.44
2022-10-28T16:29:12.276Z,19.31
2022-10-28T16:32:57.067Z,19.40
2022-10-28T16:35:25.192Z,19.32
2022-10-28T16:37:55.790Z,19.20
2022-10-28T16:43:27.057Z,19.13
2022-10-28T16:46:08.523Z,19.14
2022-10-28T16:48:35.969Z,19.13
2022-10-28T16:51:18.080Z,19.00
2022-10-28T16:53:53.035Z,19.03
2022-10-28T16:56:23.473Z,19.03
2022-10-28T16:58:55.091Z,19.04
2022-10-28T17:01:23.428Z,19.02
2022-10-28T17:03:50.993Z,18.99
2022-10-28T17:06:21.359Z,18.93
2022-10-28T17:09:02.544Z,18.91
2022-10-28T17:11:33.988Z,18.76
2022-10-28T17:14:01.302Z,18.59
2022-10-28T17:16:31.891Z,18.60
2022-10-28T17:18:59.448Z,18.41
2022-10-28T17:21:26.888Z,18.46
2022-10-28T17:23:53.997Z,18.20
2022-10-28T17:26:21.442Z,18.06
2022-10-28T17:28:53.064Z,18.10
2022-10-28T17:31:25.076Z,18.04
2022-10-28T17:33:58.403Z,18.00
2022-10-28T17:36:25.529Z,18.10
2022-10-28T17:38:52.474Z,18.13
2022-10-28T17:41:19.760Z,18.22
2022-10-28T17:43:46.928Z,18.11
2022-10-28T17:46:14.110Z,17.95
2022-10-28T17:48:41.240Z,17.76
2022-10-28T17:51:08.547Z,17.87
2022-10-28T17:53:35.561Z,17.87
2022-10-28T17:56:06.815Z,17.77
2022-10-28T17:58:34.188Z,17.68
2022-10-28T18:01:10.342Z,17.61
2022-10-28T18:03:38.896Z,17.61
2022-10-28T18:06:14.718Z,17.63
2022-10-28T18:08:44.302Z,17.60
2022-10-28T18:11:15.011Z,17.34
2022-10-28T18:13:46.071Z,17.18
2022-10-28T18:16:24.222Z,17.11
2022-10-28T18:18:53.320Z,17.05
2022-10-28T18:21:21.473Z,17.18
2022-10-28T18:23:53.490Z,17.26
2022-10-28T18:26:21.395Z,17.10
2022-10-28T18:28:49.171Z,17.08
2022-10-28T18:31:19.976Z,17.11
2022-10-28T18:33:47.959Z,17.10
2022-10-28T18:36:24.385Z,16.99
2022-10-28T18:38:52.330Z,16.92
2022-10-28T18:41:26.889Z,17.00
2022-10-28T18:44:04.355Z,17.06
2022-10-28T18:46:37.752Z,17.07
2022-10-28T18:49:05.957Z,17.13
2022-10-28T18:51:34.242Z,17.04
2022-10-28T18:54:01.568Z,17.06
2022-10-28T18:56:29.845Z,17.01
2022-10-28T18:59:01.497Z,17.03
2022-10-28T19:01:29.965Z,17.15
2022-10-28T19:04:05.114Z,17.10
2022-10-28T19:06:33.871Z,16.90
2022-10-28T19:09:04.262Z,16.84
2022-10-28T19:11:33.754Z,16.69
2022-10-28T19:14:05.259Z,16.78
2022-10-28T19:16:34.792Z,16.81
2022-10-28T19:19:07.038Z,16.88
2022-10-28T19:21:34.522Z,16.79
2022-10-28T19:24:02.221Z,16.88
2022-10-28T19:26:31.919Z,16.87
2022-10-28T19:28:59.230Z,16.79
2022-10-28T19:31:27.584Z,16.81
2022-10-28T19:33:55.282Z,16.73
2022-10-28T19:36:26.504Z,16.86
2022-10-28T19:38:55.485Z,16.86
2022-10-28T19:41:29.573Z,16.83
2022-10-28T19:44:00.617Z,16.87
2022-10-28T19:46:34.828Z,16.83
2022-10-28T19:49:53.122Z,16.84
2022-10-28T19:52:20.076Z,16.84
2022-10-28T19:54:49.408Z,16.84
2022-10-28T19:57:17.090Z,16.83
2022-10-28T19:59:56.020Z,16.84
2022-10-28T20:02:26.872Z,16.81
2022-10-28T20:05:04.263Z,16.79
2022-10-28T20:07:31.664Z,16.81
2022-10-28T20:12:34.372Z,16.83
2022-10-28T20:15:13.613Z,16.86
2022-10-28T20:17:44.556Z,16.84
2022-10-28T20:20:17.544Z,16.83
2022-10-28T20:22:52.550Z,16.82
2022-10-28T20:25:22.779Z,16.80
2022-10-28T20:27:50.623Z,16.80
2022-10-28T20:30:17.786Z,16.77
2022-10-28T20:32:44.778Z,16.80
2022-10-28T20:35:11.971Z,16.89
2022-10-28T20:37:42.093Z,16.86
2022-10-28T20:40:10.159Z,16.79
2022-10-28T20:42:45.448Z,16.83
2022-10-28T20:45:12.362Z,16.78
2022-10-28T20:47:39.288Z,16.82
2022-10-28T20:50:07.617Z,16.77
2022-10-28T20:52:34.643Z,16.79
2022-10-28T20:55:01.628Z,16.75
2022-10-28T20:57:28.564Z,16.76
2022-10-28T20:59:55.557Z,16.78
2022-10-28T21:02:22.608Z,16.74
2022-10-28T21:04:49.892Z,16.80
2022-10-28T21:07:16.824Z,16.84
2022-10-28T21:09:43.818Z,16.86
2022-10-28T21:12:10.815Z,16.88
2022-10-28T21:14:42.698Z,16.87
2022-10-28T21:17:10.043Z,16.78
2022-10-28T21:19:37.871Z,16.83
2022-10-28T21:22:05.157Z,16.71
2022-10-28T21:24:32.502Z,16.61
2022-10-28T21:26:59.689Z,16.39
2022-10-28T21:29:27.001Z,16.01
2022-10-28T21:31:54.305Z,16.03
2022-10-28T21:34:21.389Z,15.84
2022-10-28T21:36:48.476Z,15.85
2022-10-28T21:39:21.982Z,15.80
2022-10-28T21:41:49.155Z,15.75
2022-10-28T21:44:16.213Z,15.73
2022-10-28T21:46:43.411Z,15.65
2022-10-28T21:49:10.323Z,15.61
2022-10-28T21:51:37.292Z,15.58
2022-10-28T21:54:04.624Z,15.60
2022-10-28T21:56:31.549Z,15.63
2022-10-28T21:58:58.879Z,15.54
2022-10-28T22:01:26.027Z,15.58
2022-10-28T22:03:55.670Z,15.51
2022-10-28T22:06:23.173Z,15.34
2022-10-28T22:08:54.044Z,15.45
2022-10-28T22:11:23.962Z,15.43
2022-10-28T22:14:00.513Z,15.48
2022-10-28T22:16:30.102Z,15.41
2022-10-28T22:19:00.219Z,15.36
2022-10-28T22:21:31.856Z,15.37
2022-10-28T22:23:59.298Z,15.34
2022-10-28T22:26:30.204Z,15.36
2022-10-28T22:28:57.572Z,15.36
2022-10-28T22:31:32.523Z,15.30
2022-10-28T22:34:00.389Z,15.28
2022-10-28T22:36:29.720Z,15.31
2022-10-28T22:38:57.339Z,15.47
2022-10-28T22:41:30.813Z,15.50
2022-10-28T22:44:01.224Z,15.51
2022-10-28T22:46:33.387Z,15.59
2022-10-28T22:49:00.488Z,15.61
2022-10-28T22:51:27.493Z,15.70
2022-10-28T22:53:54.527Z,15.71
2022-10-28T22:56:25.038Z,15.76
2022-10-28T22:58:58.974Z,15.72
2022-10-28T23:01:29.052Z,15.52
2022-10-28T23:03:56.790Z,15.48
2022-10-28T23:06:26.893Z,15.50
2022-10-28T23:08:54.869Z,15.47
2022-10-28T23:11:22.784Z,15.36
2022-10-28T23:13:54.781Z,15.34
2022-10-28T23:16:23.726Z,15.30
2022-10-28T23:18:52.898Z,15.32
2022-10-28T23:21:24.461Z,15.29
2022-10-28T23:23:57.689Z,15.28
2022-10-28T23:26:26.915Z,15.13
2022-10-28T23:28:59.821Z,15.22
2022-10-28T23:31:28.383Z,15.31
2022-10-28T23:33:56.442Z,15.35
2022-10-28T23:36:23.696Z,15.38
2022-10-28T23:38:50.786Z,15.16
2022-10-28T23:41:19.351Z,15.27
2022-10-28T23:43:49.388Z,15.19
2022-10-28T23:46:18.501Z,15.21
2022-10-28T23:48:45.516Z,15.20
2022-10-28T23:51:14.709Z,15.19
2022-10-28T23:53:41.653Z,15.23
2022-10-28T23:56:09.027Z,15.11
2022-10-28T23:58:36.056Z,14.95
